sensor_id;sensor_type;location;lat;lon;timestamp;pressure;altitude;pressure_sealevel;temperature;humidity
79331;BME280;68797;49.782;19.054;2024-01-10T00:02:00;98794.94;;;-13.12;83.76
79331;BME280;68797;49.782;19.054;2024-01-10T00:04:28;98803.78;;;-13.29;82.08
79331;BME280;68797;49.782;19.054;2024-01-10T00:06:59;98804.78;;;-13.37;80.98
79331;BME280;68797;49.782;19.054;2024-01-10T00:09:25;98808.34;;;-13.35;81.64
79331;BME280;68797;49.782;19.054;2024-01-10T00:11:55;98801.56;;;-13.55;80.57
79331;BME280;68797;49.782;19.054;2024-01-10T00:14:24;98792.88;;;-13.57;81.10
79331;BME280;68797;49.782;19.054;2024-01-10T00:16:50;98786.00;;;-13.48;83.51
79331;BME280;68797;49.782;19.054;2024-01-10T00:19:18;98795.81;;;-13.42;82.96
79331;BME280;68797;49.782;19.054;2024-01-10T00:21:45;98793.53;;;-13.50;81.84
79331;BME280;68797;49.782;19.054;2024-01-10T00:24:12;98789.06;;;-13.62;81.57
79331;BME280;68797;49.782;19.054;2024-01-10T00:26:40;98773.19;;;-13.79;81.48
79331;BME280;68797;49.782;19.054;2024-01-10T00:29:09;98779.44;;;-13.75;82.11
79331;BME280;68797;49.782;19.054;2024-01-10T00:31:36;98774.63;;;-13.62;82.99
79331;BME280;68797;49.782;19.054;2024-01-10T00:34:05;98767.00;;;-13.52;83.27
79331;BME280;68797;49.782;19.054;2024-01-10T00:36:32;98771.31;;;-13.61;81.65
79331;BME280;68797;49.782;19.054;2024-01-10T00:38:59;98772.84;;;-13.53;81.85
79331;BME280;68797;49.782;19.054;2024-01-10T00:41:26;98766.47;;;-13.47;82.30
79331;BME280;68797;49.782;19.054;2024-01-10T00:43:53;98765.84;;;-13.45;82.42
79331;BME280;68797;49.782;19.054;2024-01-10T00:46:20;98775.00;;;-13.57;81.25
79331;BME280;68797;49.782;19.054;2024-01-10T00:48:52;98769.34;;;-13.84;80.48
79331;BME280;68797;49.782;19.054;2024-01-10T00:51:19;98764.38;;;-13.82;81.34
79331;BME280;68797;49.782;19.054;2024-01-10T00:53:46;98757.72;;;-13.90;80.58
79331;BME280;68797;49.782;19.054;2024-01-10T00:56:16;98767.69;;;-13.83;81.17
79331;BME280;68797;49.782;19.054;2024-01-10T00:58:49;98755.97;;;-13.81;81.18
79331;BME280;68797;49.782;19.054;2024-01-10T01:01:16;98753.03;;;-13.75;80.66
79331;BME280;68797;49.782;19.054;2024-01-10T01:03:45;98763.19;;;-13.86;79.76
79331;BME280;68797;49.782;19.054;2024-01-10T01:06:13;98756.72;;;-13.82;81.44
79331;BME280;68797;49.782;19.054;2024-01-10T01:08:42;98744.97;;;-13.90;81.45
79331;BME280;68797;49.782;19.054;2024-01-10T01:11:08;98760.84;;;-13.74;82.50
79331;BME280;68797;49.782;19.054;2024-01-10T01:13:35;98752.28;;;-13.64;82.32
79331;BME280;68797;49.782;19.054;2024-01-10T01:16:04;98754.97;;;-13.73;81.25
79331;BME280;68797;49.782;19.054;2024-01-10T01:18:30;98755.19;;;-13.80;81.30
79331;BME280;68797;49.782;19.054;2024-01-10T01:20:56;98754.56;;;-13.77;81.71
79331;BME280;68797;49.782;19.054;2024-01-10T01:23:23;98752.41;;;-13.73;81.86
79331;BME280;68797;49.782;19.054;2024-01-10T01:25:51;98750.22;;;-13.79;81.73
79331;BME280;68797;49.782;19.054;2024-01-10T01:28:19;98752.91;;;-13.77;82.71
79331;BME280;68797;49.782;19.054;2024-01-10T01:30:45;98751.25;;;-13.66;83.05
79331;BME280;68797;49.782;19.054;2024-01-10T01:33:25;98757.38;;;-13.64;82.66
79331;BME280;68797;49.782;19.054;2024-01-10T01:35:51;98753.47;;;-13.51;84.49
79331;BME280;68797;49.782;19.054;2024-01-10T01:38:21;98747.88;;;-13.36;84.48
79331;BME280;68797;49.782;19.054;2024-01-10T01:40:48;98746.56;;;-13.31;83.73
79331;BME280;68797;49.782;19.054;2024-01-10T01:43:33;98749.28;;;-13.40;83.95
79331;BME280;68797;49.782;19.054;2024-01-10T01:46:01;98760.47;;;-13.17;85.68
79331;BME280;68797;49.782;19.054;2024-01-10T01:48:30;98765.75;;;-13.26;82.83
79331;BME280;68797;49.782;19.054;2024-01-10T01:50:59;98772.47;;;-13.47;82.31
79331;BME280;68797;49.782;19.054;2024-01-10T01:53:34;98767.75;;;-13.42;82.89
79331;BME280;68797;49.782;19.054;2024-01-10T01:56:08;98757.19;;;-13.37;83.56
79331;BME280;68797;49.782;19.054;2024-01-10T01:58:37;98761.63;;;-13.34;83.18
79331;BME280;68797;49.782;19.054;2024-01-10T02:01:05;98754.63;;;-13.47;82.91
79331;BME280;68797;49.782;19.054;2024-01-10T02:03:33;98757.41;;;-13.44;82.18
79331;BME280;68797;49.782;19.054;2024-01-10T02:06:01;98751.19;;;-13.37;83.17
79331;BME280;68797;49.782;19.054;2024-01-10T02:08:33;98745.19;;;-13.28;83.46
79331;BME280;68797;49.782;19.054;2024-01-10T02:11:01;98751.44;;;-13.24;83.37
79331;BME280;68797;49.782;19.054;2024-01-10T02:13:32;98749.53;;;-13.27;82.47
79331;BME280;68797;49.782;19.054;2024-01-10T02:16:03;98747.50;;;-13.41;82.16
79331;BME280;68797;49.782;19.054;2024-01-10T02:18:32;98740.44;;;-13.43;82.31
79331;BME280;68797;49.782;19.054;2024-01-10T02:21:02;98742.88;;;-13.35;83.12
79331;BME280;68797;49.782;19.054;2024-01-10T02:23:30;98740.09;;;-13.28;83.00
79331;BME280;68797;49.782;19.054;2024-01-10T02:25:57;98739.31;;;-13.27;82.89
79331;BME280;68797;49.782;19.054;2024-01-10T02:28:25;98745.06;;;-13.29;83.26
79331;BME280;68797;49.782;19.054;2024-01-10T02:30:54;98748.34;;;-13.30;81.97
79331;BME280;68797;49.782;19.054;2024-01-10T02:33:25;98737.13;;;-13.42;81.71
79331;BME280;68797;49.782;19.054;2024-01-10T02:35:53;98747.84;;;-13.57;81.92
79331;BME280;68797;49.782;19.054;2024-01-10T02:38:23;98735.97;;;-13.56;81.85
79331;BME280;68797;49.782;19.054;2024-01-10T02:40:49;98738.75;;;-13.63;81.47
79331;BME280;68797;49.782;19.054;2024-01-10T02:43:17;98740.69;;;-13.71;81.82
79331;BME280;68797;49.782;19.054;2024-01-10T02:45:44;98736.19;;;-13.84;81.52
79331;BME280;68797;49.782;19.054;2024-01-10T02:48:12;98726.75;;;-13.85;81.83
79331;BME280;68797;49.782;19.054;2024-01-10T02:50:41;98729.69;;;-13.80;81.83
79331;BME280;68797;49.782;19.054;2024-01-10T02:53:10;98732.00;;;-13.83;81.48
79331;BME280;68797;49.782;19.054;2024-01-10T02:55:52;98730.31;;;-13.93;80.80
79331;BME280;68797;49.782;19.054;2024-01-10T02:58:20;98733.97;;;-13.99;80.66
79331;BME280;68797;49.782;19.054;2024-01-10T03:00:52;98727.38;;;-13.87;82.08
79331;BME280;68797;49.782;19.054;2024-01-10T03:03:20;98720.00;;;-13.84;82.08
79331;BME280;68797;49.782;19.054;2024-01-10T03:05:53;98724.44;;;-13.92;82.02
79331;BME280;68797;49.782;19.054;2024-01-10T03:08:22;98728.66;;;-13.92;82.28
79331;BME280;68797;49.782;19.054;2024-01-10T03:10:49;98724.69;;;-13.89;83.04
79331;BME280;68797;49.782;19.054;2024-01-10T03:13:16;98719.09;;;-13.95;82.19
79331;BME280;68797;49.782;19.054;2024-01-10T03:15:43;98713.09;;;-13.95;81.84
79331;BME280;68797;49.782;19.054;2024-01-10T03:18:14;98712.47;;;-13.93;81.94
79331;BME280;68797;49.782;19.054;2024-01-10T03:20:43;98721.50;;;-13.86;82.42
79331;BME280;68797;49.782;19.054;2024-01-10T03:23:09;98719.94;;;-14.04;81.55
79331;BME280;68797;49.782;19.054;2024-01-10T03:25:35;98727.22;;;-13.99;80.84
79331;BME280;68797;49.782;19.054;2024-01-10T03:28:02;98728.00;;;-13.90;81.32
79331;BME280;68797;49.782;19.054;2024-01-10T03:30:31;98726.75;;;-13.95;80.78
79331;BME280;68797;49.782;19.054;2024-01-10T03:32:58;98720.09;;;-13.93;81.78
79331;BME280;68797;49.782;19.054;2024-01-10T03:35:26;98723.28;;;-14.05;82.39
79331;BME280;68797;49.782;19.054;2024-01-10T03:37:56;98723.41;;;-14.04;82.63
79331;BME280;68797;49.782;19.054;2024-01-10T03:40:24;98717.16;;;-13.87;83.26
79331;BME280;68797;49.782;19.054;2024-01-10T03:42:51;98719.47;;;-13.90;82.52
79331;BME280;68797;49.782;19.054;2024-01-10T03:45:18;98704.41;;;-13.87;83.15
79331;BME280;68797;49.782;19.054;2024-01-10T03:47:50;98706.84;;;-13.89;83.28
79331;BME280;68797;49.782;19.054;2024-01-10T03:50:19;98714.25;;;-13.92;83.00
79331;BME280;68797;49.782;19.054;2024-01-10T03:53:01;98710.06;;;-13.81;83.16
79331;BME280;68797;49.782;19.054;2024-01-10T03:55:54;98706.22;;;-13.76;83.44
79331;BME280;68797;49.782;19.054;2024-01-10T03:58:21;98703.06;;;-13.73;83.08
79331;BME280;68797;49.782;19.054;2024-01-10T04:00:48;98703.44;;;-13.69;83.52
79331;BME280;68797;49.782;19.054;2024-01-10T04:03:16;98700.91;;;-13.59;83.61
79331;BME280;68797;49.782;19.054;2024-01-10T04:05:46;98695.03;;;-13.58;84.09
79331;BME280;68797;49.782;19.054;2024-01-10T04:08:13;98687.22;;;-13.69;83.83
79331;BME280;68797;49.782;19.054;2024-01-10T04:10:41;98694.88;;;-13.69;84.64
79331;BME280;68797;49.782;19.054;2024-01-10T04:13:09;98699.88;;;-13.61;84.61
79331;BME280;68797;49.782;19.054;2024-01-10T04:15:38;98696.94;;;-13.55;84.32
79331;BME280;68797;49.782;19.054;2024-01-10T04:18:05;98693.75;;;-13.73;84.00
79331;BME280;68797;49.782;19.054;2024-01-10T04:20:35;98694.50;;;-13.64;84.14
79331;BME280;68797;49.782;19.054;2024-01-10T04:23:04;98697.94;;;-13.63;84.94
79331;BME280;68797;49.782;19.054;2024-01-10T04:25:31;98706.25;;;-13.56;84.71
79331;BME280;68797;49.782;19.054;2024-01-10T04:27:59;98699.88;;;-13.61;84.00
79331;BME280;68797;49.782;19.054;2024-01-10T04:30:26;98701.00;;;-13.57;85.10
79331;BME280;68797;49.782;19.054;2024-01-10T04:32:54;98709.94;;;-13.42;85.63
79331;BME280;68797;49.782;19.054;2024-01-10T04:35:22;98714.03;;;-13.24;86.18
79331;BME280;68797;49.782;19.054;2024-01-10T04:37:49;98708.81;;;-13.25;85.12
79331;BME280;68797;49.782;19.054;2024-01-10T04:40:15;98706.91;;;-13.28;86.37
79331;BME280;68797;49.782;19.054;2024-01-10T04:43:03;98716.72;;;-13.42;85.13
79331;BME280;68797;49.782;19.054;2024-01-10T04:45:32;98709.44;;;-13.38;85.66
79331;BME280;68797;49.782;19.054;2024-01-10T04:47:59;98709.56;;;-13.46;84.84
79331;BME280;68797;49.782;19.054;2024-01-10T04:50:27;98713.91;;;-13.35;84.86
79331;BME280;68797;49.782;19.054;2024-01-10T04:52:55;98699.06;;;-13.19;85.64
79331;BME280;68797;49.782;19.054;2024-01-10T04:55:23;98702.47;;;-13.08;85.62
79331;BME280;68797;49.782;19.054;2024-01-10T04:57:50;98699.78;;;-13.00;85.55
79331;BME280;68797;49.782;19.054;2024-01-10T05:00:27;98703.09;;;-12.91;86.34
79331;BME280;68797;49.782;19.054;2024-01-10T05:02:54;98701.69;;;-12.97;85.15
79331;BME280;68797;49.782;19.054;2024-01-10T05:05:21;98708.56;;;-12.86;86.08
79331;BME280;68797;49.782;19.054;2024-01-10T05:07:50;98706.81;;;-12.97;86.26
79331;BME280;68797;49.782;19.054;2024-01-10T05:10:19;98708.44;;;-12.87;86.91
79331;BME280;68797;49.782;19.054;2024-01-10T05:12:47;98697.72;;;-12.83;86.23
79331;BME280;68797;49.782;19.054;2024-01-10T05:15:18;98706.78;;;-12.87;85.95
79331;BME280;68797;49.782;19.054;2024-01-10T05:17:47;98704.38;;;-12.85;86.25
79331;BME280;68797;49.782;19.054;2024-01-10T05:20:16;98702.44;;;-12.88;86.86
79331;BME280;68797;49.782;19.054;2024-01-10T05:22:43;98704.97;;;-12.78;87.67
79331;BME280;68797;49.782;19.054;2024-01-10T05:25:10;98707.75;;;-12.65;87.74
79331;BME280;68797;49.782;19.054;2024-01-10T05:27:40;98702.25;;;-12.59;87.64
79331;BME280;68797;49.782;19.054;2024-01-10T05:30:14;98703.78;;;-12.51;87.46
79331;BME280;68797;49.782;19.054;2024-01-10T05:32:40;98706.78;;;-12.45;87.37
79331;BME280;68797;49.782;19.054;2024-01-10T05:35:08;98704.25;;;-12.45;87.81
79331;BME280;68797;49.782;19.054;2024-01-10T05:37:38;98705.53;;;-12.40;88.15
79331;BME280;68797;49.782;19.054;2024-01-10T05:40:06;98706.38;;;-12.29;89.03
79331;BME280;68797;49.782;19.054;2024-01-10T05:42:44;98702.66;;;-12.33;88.94
79331;BME280;68797;49.782;19.054;2024-01-10T05:45:59;98699.78;;;-12.15;88.61
79331;BME280;68797;49.782;19.054;2024-01-10T05:48:28;98695.00;;;-12.11;88.82
79331;BME280;68797;49.782;19.054;2024-01-10T05:51:01;98696.63;;;-12.01;89.11
79331;BME280;68797;49.782;19.054;2024-01-10T05:53:28;98693.72;;;-12.06;88.88
79331;BME280;68797;49.782;19.054;2024-01-10T05:55:54;98694.88;;;-12.12;88.87
79331;BME280;68797;49.782;19.054;2024-01-10T05:58:21;98696.38;;;-12.04;89.51
79331;BME280;68797;49.782;19.054;2024-01-10T06:00:50;98702.56;;;-11.90;90.43
79331;BME280;68797;49.782;19.054;2024-01-10T06:03:18;98694.72;;;-11.82;90.65
79331;BME280;68797;49.782;19.054;2024-01-10T06:05:45;98697.41;;;-11.80;90.88
79331;BME280;68797;49.782;19.054;2024-01-10T06:08:14;98690.03;;;-11.76;90.85
79331;BME280;68797;49.782;19.054;2024-01-10T06:10:40;98694.97;;;-11.67;90.34
79331;BME280;68797;49.782;19.054;2024-01-10T06:13:08;98683.38;;;-11.74;90.61
79331;BME280;68797;49.782;19.054;2024-01-10T06:15:35;98689.31;;;-11.63;91.04
79331;BME280;68797;49.782;19.054;2024-01-10T06:18:03;98700.09;;;-11.67;90.47
79331;BME280;68797;49.782;19.054;2024-01-10T06:20:34;98692.00;;;-11.61;90.85
79331;BME280;68797;49.782;19.054;2024-01-10T06:23:05;98694.66;;;-11.60;91.11
79331;BME280;68797;49.782;19.054;2024-01-10T06:25:31;98694.00;;;-11.57;91.31
79331;BME280;68797;49.782;19.054;2024-01-10T06:28:02;98705.50;;;-11.52;90.23
79331;BME280;68797;49.782;19.054;2024-01-10T06:30:29;98697.81;;;-11.52;90.30
79331;BME280;68797;49.782;19.054;2024-01-10T06:33:00;98690.81;;;-11.43;90.23
79331;BME280;68797;49.782;19.054;2024-01-10T06:35:26;98697.72;;;-11.42;91.71
79331;BME280;68797;49.782;19.054;2024-01-10T06:37:54;98703.31;;;-11.36;90.63
79331;BME280;68797;49.782;19.054;2024-01-10T06:40:21;98690.81;;;-11.43;89.38
79331;BME280;68797;49.782;19.054;2024-01-10T06:42:48;98697.97;;;-11.39;90.05
79331;BME280;68797;49.782;19.054;2024-01-10T06:45:16;98710.88;;;-11.37;90.53
79331;BME280;68797;49.782;19.054;2024-01-10T06:47:43;98699.16;;;-11.46;88.99
79331;BME280;68797;49.782;19.054;2024-01-10T06:50:11;98704.44;;;-11.32;89.92
79331;BME280;68797;49.782;19.054;2024-01-10T06:52:38;98701.66;;;-11.35;90.97
79331;BME280;68797;49.782;19.054;2024-01-10T06:55:09;98697.78;;;-11.30;91.24
79331;BME280;68797;49.782;19.054;2024-01-10T06:57:35;98707.34;;;-11.28;91.29
79331;BME280;68797;49.782;19.054;2024-01-10T07:00:03;98710.75;;;-11.05;90.97
79331;BME280;68797;49.782;19.054;2024-01-10T07:02:36;98705.63;;;-11.05;92.13
79331;BME280;68797;49.782;19.054;2024-01-10T07:05:09;98710.41;;;-10.87;90.97
79331;BME280;68797;49.782;19.054;2024-01-10T07:07:35;98710.75;;;-10.94;91.42
79331;BME280;68797;49.782;19.054;2024-01-10T07:10:05;98719.25;;;-10.71;91.46
79331;BME280;68797;49.782;19.054;2024-01-10T07:12:35;98708.22;;;-10.70;90.00
79331;BME280;68797;49.782;19.054;2024-01-10T07:15:32;98703.41;;;-10.66;88.62
79331;BME280;68797;49.782;19.054;2024-01-10T07:18:01;98705.19;;;-10.65;87.97
79331;BME280;68797;49.782;19.054;2024-01-10T07:20:30;98707.66;;;-10.78;88.27
79331;BME280;68797;49.782;19.054;2024-01-10T07:22:58;98724.16;;;-10.86;88.23
79331;BME280;68797;49.782;19.054;2024-01-10T07:25:27;98714.31;;;-10.92;88.29
79331;BME280;68797;49.782;19.054;2024-01-10T07:27:53;98720.66;;;-10.87;89.95
79331;BME280;68797;49.782;19.054;2024-01-10T07:30:22;98721.47;;;-10.76;90.40
79331;BME280;68797;49.782;19.054;2024-01-10T07:32:48;98719.38;;;-10.70;91.60
79331;BME280;68797;49.782;19.054;2024-01-10T07:35:14;98722.16;;;-10.67;93.18
79331;BME280;68797;49.782;19.054;2024-01-10T07:37:42;98732.09;;;-10.36;91.71
79331;BME280;68797;49.782;19.054;2024-01-10T07:40:11;98727.28;;;-10.32;91.97
79331;BME280;68797;49.782;19.054;2024-01-10T07:42:38;98718.13;;;-10.28;91.46
79331;BME280;68797;49.782;19.054;2024-01-10T07:45:09;98728.94;;;-10.32;90.82
79331;BME280;68797;49.782;19.054;2024-01-10T07:47:39;98730.50;;;-10.22;90.90
79331;BME280;68797;49.782;19.054;2024-01-10T07:50:10;98730.97;;;-10.28;91.04
79331;BME280;68797;49.782;19.054;2024-01-10T07:52:42;98728.16;;;-10.31;91.87
79331;BME280;68797;49.782;19.054;2024-01-10T07:55:09;98725.06;;;-10.27;91.70
79331;BME280;68797;49.782;19.054;2024-01-10T07:57:38;98730.81;;;-10.18;90.69
79331;BME280;68797;49.782;19.054;2024-01-10T08:00:07;98713.84;;;-10.16;90.25
79331;BME280;68797;49.782;19.054;2024-01-10T08:02:40;98725.09;;;-10.14;89.60
79331;BME280;68797;49.782;19.054;2024-01-10T08:05:07;98724.88;;;-10.05;89.41
79331;BME280;68797;49.782;19.054;2024-01-10T08:07:37;98705.56;;;-10.12;89.47
79331;BME280;68797;49.782;19.054;2024-01-10T08:10:06;98712.06;;;-10.17;89.71
79331;BME280;68797;49.782;19.054;2024-01-10T08:12:32;98707.34;;;-10.11;90.11
79331;BME280;68797;49.782;19.054;2024-01-10T08:15:02;98717.06;;;-10.07;89.86
79331;BME280;68797;49.782;19.054;2024-01-10T08:17:31;98709.91;;;-9.99;88.83
79331;BME280;68797;49.782;19.054;2024-01-10T08:19:57;98714.47;;;-9.95;88.71
79331;BME280;68797;49.782;19.054;2024-01-10T08:22:36;98704.31;;;-9.93;89.04
79331;BME280;68797;49.782;19.054;2024-01-10T08:25:06;98699.88;;;-9.96;90.29
79331;BME280;68797;49.782;19.054;2024-01-10T08:27:47;98702.16;;;-9.87;90.69
79331;BME280;68797;49.782;19.054;2024-01-10T08:30:18;98697.28;;;-9.84;91.04
79331;BME280;68797;49.782;19.054;2024-01-10T08:36:28;98707.06;;;-9.54;91.62
79331;BME280;68797;49.782;19.054;2024-01-10T08:38:58;98702.97;;;-9.52;91.63
79331;BME280;68797;49.782;19.054;2024-01-10T08:41:25;98712.41;;;-9.39;91.83
79331;BME280;68797;49.782;19.054;2024-01-10T08:43:55;98705.72;;;-9.24;92.18
79331;BME280;68797;49.782;19.054;2024-01-10T08:46:23;98694.28;;;-9.16;91.50
79331;BME280;68797;49.782;19.054;2024-01-10T08:48:54;98693.06;;;-9.21;92.06
79331;BME280;68797;49.782;19.054;2024-01-10T08:51:22;98701.56;;;-8.97;91.32
79331;BME280;68797;49.782;19.054;2024-01-10T08:53:51;98707.78;;;-8.93;92.13
79331;BME280;68797;49.782;19.054;2024-01-10T08:56:20;98698.91;;;-8.85;91.70
79331;BME280;68797;49.782;19.054;2024-01-10T08:58:50;98699.53;;;-8.63;91.96
79331;BME280;68797;49.782;19.054;2024-01-10T09:01:16;98697.66;;;-8.52;92.19
79331;BME280;68797;49.782;19.054;2024-01-10T09:03:46;98695.78;;;-8.41;92.45
79331;BME280;68797;49.782;19.054;2024-01-10T09:06:18;98689.59;;;-8.17;91.21
79331;BME280;68797;49.782;19.054;2024-01-10T09:08:47;98696.09;;;-7.96;90.08
79331;BME280;68797;49.782;19.054;2024-01-10T09:11:15;98699.69;;;-7.79;89.31
79331;BME280;68797;49.782;19.054;2024-01-10T09:13:45;98688.38;;;-7.68;89.29
79331;BME280;68797;49.782;19.054;2024-01-10T09:16:13;98687.25;;;-7.58;88.29
79331;BME280;68797;49.782;19.054;2024-01-10T09:18:40;98679.94;;;-7.65;89.14
79331;BME280;68797;49.782;19.054;2024-01-10T09:21:07;98689.19;;;-7.41;88.86
79331;BME280;68797;49.782;19.054;2024-01-10T09:23:36;98682.22;;;-7.14;87.70
79331;BME280;68797;49.782;19.054;2024-01-10T09:26:08;98684.03;;;-6.83;86.23
79331;BME280;68797;49.782;19.054;2024-01-10T09:28:38;98684.81;;;-6.55;85.40
79331;BME280;68797;49.782;19.054;2024-01-10T09:31:07;98684.56;;;-6.59;84.66
79331;BME280;68797;49.782;19.054;2024-01-10T09:33:37;98684.81;;;-6.69;85.19
79331;BME280;68797;49.782;19.054;2024-01-10T09:36:07;98673.59;;;-6.70;86.18
79331;BME280;68797;49.782;19.054;2024-01-10T09:38:39;98678.50;;;-6.75;86.52
79331;BME280;68797;49.782;19.054;2024-01-10T09:41:08;98673.88;;;-6.95;86.89
79331;BME280;68797;49.782;19.054;2024-01-10T09:43:59;98678.50;;;-6.75;87.02
79331;BME280;68797;49.782;19.054;2024-01-10T09:46:29;98664.72;;;-6.75;86.91
79331;BME280;68797;49.782;19.054;2024-01-10T09:48:58;98665.75;;;-6.57;86.41
79331;BME280;68797;49.782;19.054;2024-01-10T09:51:26;98676.50;;;-6.20;85.23
79331;BME280;68797;49.782;19.054;2024-01-10T09:54:03;98665.22;;;-6.05;84.12
79331;BME280;68797;49.782;19.054;2024-01-10T09:56:34;98664.66;;;-5.83;84.03
79331;BME280;68797;49.782;19.054;2024-01-10T09:59:04;98670.84;;;-5.65;83.66
79331;BME280;68797;49.782;19.054;2024-01-10T10:01:41;98669.72;;;-5.54;83.60
79331;BME280;68797;49.782;19.054;2024-01-10T10:04:11;98658.78;;;-5.48;82.49
79331;BME280;68797;49.782;19.054;2024-01-10T10:06:40;98659.50;;;-5.35;83.14
79331;BME280;68797;49.782;19.054;2024-01-10T10:09:14;98661.63;;;-5.28;80.97
79331;BME280;68797;49.782;19.054;2024-01-10T10:11:54;98655.16;;;-5.19;82.69
79331;BME280;68797;49.782;19.054;2024-01-10T10:14:28;98652.31;;;-5.08;81.69
79331;BME280;68797;49.782;19.054;2024-01-10T10:17:17;98647.34;;;-5.03;81.32
79331;BME280;68797;49.782;19.054;2024-01-10T10:20:03;98647.75;;;-4.95;82.39
79331;BME280;68797;49.782;19.054;2024-01-10T10:22:32;98640.06;;;-4.94;82.43
79331;BME280;68797;49.782;19.054;2024-01-10T10:25:02;98646.88;;;-4.78;81.92
79331;BME280;68797;49.782;19.054;2024-01-10T10:27:36;98649.06;;;-4.70;82.73
79331;BME280;68797;49.782;19.054;2024-01-10T10:30:10;98635.97;;;-4.73;83.39
79331;BME280;68797;49.782;19.054;2024-01-10T10:32:45;98642.94;;;-4.54;82.22
79331;BME280;68797;49.782;19.054;2024-01-10T10:35:12;98638.13;;;-4.46;83.85
79331;BME280;68797;49.782;19.054;2024-01-10T10:37:39;98639.25;;;-4.41;82.88
79331;BME280;68797;49.782;19.054;2024-01-10T10:40:11;98631.25;;;-4.28;83.74
79331;BME280;68797;49.782;19.054;2024-01-10T10:42:56;98632.50;;;-4.38;84.44
79331;BME280;68797;49.782;19.054;2024-01-10T10:45:27;98629.81;;;-4.21;83.30
79331;BME280;68797;49.782;19.054;2024-01-10T10:48:04;98635.44;;;-4.12;82.32
79331;BME280;68797;49.782;19.054;2024-01-10T10:51:17;98631.91;;;-4.14;83.76
79331;BME280;68797;49.782;19.054;2024-01-10T10:53:43;98612.97;;;-4.31;85.00
79331;BME280;68797;49.782;19.054;2024-01-10T10:56:14;98618.22;;;-4.29;85.85
79331;BME280;68797;49.782;19.054;2024-01-10T10:58:44;98620.38;;;-4.39;85.66
79331;BME280;68797;49.782;19.054;2024-01-10T11:01:15;98626.22;;;-4.43;87.76
79331;BME280;68797;49.782;19.054;2024-01-10T11:03:43;98611.00;;;-4.54;88.69
79331;BME280;68797;49.782;19.054;2024-01-10T11:06:25;98630.16;;;-4.51;89.27
79331;BME280;68797;49.782;19.054;2024-01-10T11:09:06;98612.84;;;-4.52;88.54
79331;BME280;68797;49.782;19.054;2024-01-10T11:12:23;98612.28;;;-4.45;88.92
79331;BME280;68797;49.782;19.054;2024-01-10T11:21:34;98592.56;;;-4.43;84.51
79331;BME280;68797;49.782;19.054;2024-01-10T11:24:19;98596.09;;;-4.41;84.64
79331;BME280;68797;49.782;19.054;2024-01-10T11:26:46;98608.75;;;-4.47;85.45
79331;BME280;68797;49.782;19.054;2024-01-10T11:29:18;98583.97;;;-4.59;86.15
79331;BME280;68797;49.782;19.054;2024-01-10T11:31:50;98599.94;;;-4.50;87.16
79331;BME280;68797;49.782;19.054;2024-01-10T11:34:25;98594.84;;;-4.49;88.23
79331;BME280;68797;49.782;19.054;2024-01-10T11:37:11;98591.81;;;-4.40;86.46
79331;BME280;68797;49.782;19.054;2024-01-10T11:39:41;98581.22;;;-4.45;86.50
79331;BME280;68797;49.782;19.054;2024-01-10T11:42:11;98592.56;;;-4.43;87.68
79331;BME280;68797;49.782;19.054;2024-01-10T11:44:51;98588.47;;;-4.38;86.73
79331;BME280;68797;49.782;19.054;2024-01-10T11:47:19;98595.34;;;-4.38;85.07
79331;BME280;68797;49.782;19.054;2024-01-10T11:49:55;98592.63;;;-4.41;86.79
79331;BME280;68797;49.782;19.054;2024-01-10T11:52:27;98592.69;;;-4.40;86.38
79331;BME280;68797;49.782;19.054;2024-01-10T11:55:00;98590.91;;;-4.41;86.61
79331;BME280;68797;49.782;19.054;2024-01-10T11:57:29;98598.69;;;-4.41;86.07
79331;BME280;68797;49.782;19.054;2024-01-10T12:00:01;98599.44;;;-4.43;86.49
79331;BME280;68797;49.782;19.054;2024-01-10T12:02:32;98596.84;;;-4.43;87.70
79331;BME280;68797;49.782;19.054;2024-01-10T12:04:59;98590.63;;;-4.29;85.67
79331;BME280;68797;49.782;19.054;2024-01-10T12:07:27;98596.75;;;-4.27;83.65
79331;BME280;68797;49.782;19.054;2024-01-10T12:09:54;98597.56;;;-4.28;84.36
79331;BME280;68797;49.782;19.054;2024-01-10T12:12:23;98601.78;;;-4.30;85.60
79331;BME280;68797;49.782;19.054;2024-01-10T12:14:51;98599.34;;;-4.27;84.90
79331;BME280;68797;49.782;19.054;2024-01-10T12:17:20;98593.28;;;-4.27;84.83
79331;BME280;68797;49.782;19.054;2024-01-10T12:19:52;98589.50;;;-4.34;85.83
79331;BME280;68797;49.782;19.054;2024-01-10T12:22:21;98585.69;;;-4.42;87.12
79331;BME280;68797;49.782;19.054;2024-01-10T12:24:49;98589.16;;;-4.42;86.48
79331;BME280;68797;49.782;19.054;2024-01-10T12:27:17;98584.25;;;-4.35;85.49
79331;BME280;68797;49.782;19.054;2024-01-10T12:29:53;98588.69;;;-4.33;84.57
79331;BME280;68797;49.782;19.054;2024-01-10T12:32:22;98584.31;;;-4.34;85.51
79331;BME280;68797;49.782;19.054;2024-01-10T12:35:03;98585.88;;;-4.38;86.42
79331;BME280;68797;49.782;19.054;2024-01-10T12:37:34;98581.06;;;-4.48;87.06
79331;BME280;68797;49.782;19.054;2024-01-10T12:40:13;98589.09;;;-4.43;86.63
79331;BME280;68797;49.782;19.054;2024-01-10T12:42:41;98581.91;;;-4.49;86.17
79331;BME280;68797;49.782;19.054;2024-01-10T12:45:20;98583.97;;;-4.42;87.75
79331;BME280;68797;49.782;19.054;2024-01-10T12:47:48;98589.78;;;-4.46;88.49
79331;BME280;68797;49.782;19.054;2024-01-10T12:50:18;98574.94;;;-4.50;90.01
79331;BME280;68797;49.782;19.054;2024-01-10T12:52:47;98585.00;;;-4.56;90.01
79331;BME280;68797;49.782;19.054;2024-01-10T12:55:18;98587.50;;;-4.57;89.36
79331;BME280;68797;49.782;19.054;2024-01-10T12:57:45;98584.72;;;-4.62;89.48
79331;BME280;68797;49.782;19.054;2024-01-10T13:00:17;98580.94;;;-4.69;90.74
79331;BME280;68797;49.782;19.054;2024-01-10T13:02:46;98590.47;;;-4.68;90.96
79331;BME280;68797;49.782;19.054;2024-01-10T13:05:15;98574.84;;;-4.69;92.61
79331;BME280;68797;49.782;19.054;2024-01-10T13:07:43;98575.47;;;-4.75;91.81
79331;BME280;68797;49.782;19.054;2024-01-10T13:10:11;98571.19;;;-4.74;91.88